createdAt,value
2022-11-27T00:01:20.429Z,80.51
2022-11-27T00:03:48.177Z,83.08
2022-11-27T00:06:21.337Z,80.71
2022-11-27T00:08:48.849Z,81.32
2022-11-27T00:11:18.673Z,80.56
2022-11-27T00:13:45.732Z,81.50
2022-11-27T00:16:13.129Z,80.25
2022-11-27T00:18:40.276Z,82.39
2022-11-27T00:21:12.300Z,80.34
2022-11-27T00:23:39.186Z,81.14
2022-11-27T00:26:06.933Z,80.98
2022-11-27T00:28:34.049Z,80.67
2022-11-27T00:31:02.336Z,82.91
2022-11-27T00:33:31.635Z,80.84
2022-11-27T00:36:04.030Z,83.66
2022-11-27T00:38:33.532Z,82.98
2022-11-27T00:41:21.658Z,80.99
2022-11-27T00:43:48.771Z,82.18
2022-11-27T00:46:17.510Z,80.94
2022-11-27T00:48:45.584Z,81.79
2022-11-27T00:51:15.111Z,82.94
2022-11-27T00:53:42.195Z,81.90
2022-11-27T00:56:10.048Z,82.05
2022-11-27T00:58:36.555Z,83.91
2022-11-27T01:01:06.086Z,81.90
2022-11-27T01:03:34.017Z,82.29
2022-11-27T01:06:06.306Z,81.60
2022-11-27T01:08:34.052Z,81.80
2022-11-27T01:11:01.569Z,81.68
2022-11-27T01:13:31.194Z,82.51
2022-11-27T01:16:07.928Z,82.75
2022-11-27T01:18:35.908Z,82.03
2022-11-27T01:21:03.433Z,81.50
2022-11-27T01:23:30.171Z,81.30
2022-11-27T01:25:56.752Z,81.73
2022-11-27T01:28:24.247Z,81.75
2022-11-27T01:30:51.488Z,83.26
2022-11-27T01:33:19.033Z,82.23
2022-11-27T01:35:59.994Z,82.38
2022-11-27T01:38:27.285Z,81.60
2022-11-27T01:41:00.513Z,82.17
2022-11-27T01:43:39.452Z,82.71
2022-11-27T01:46:14.026Z,82.24
2022-11-27T01:48:40.746Z,81.45
2022-11-27T01:51:07.373Z,82.52
2022-11-27T01:53:34.625Z,82.27
2022-11-27T01:56:01.943Z,82.77
2022-11-27T01:58:30.293Z,82.44
2022-11-27T02:00:56.955Z,82.41
2022-11-27T02:03:23.896Z,83.23
2022-11-27T02:05:50.771Z,82.34
2022-11-27T02:08:18.411Z,82.21
2022-11-27T02:11:06.183Z,82.02
2022-11-27T02:13:41.257Z,81.64
2022-11-27T02:16:34.166Z,82.43
2022-11-27T02:19:39.454Z,83.40
2022-11-27T02:22:20.339Z,83.29
2022-11-27T02:24:56.489Z,83.02
2022-11-27T02:27:54.123Z,82.06
2022-11-27T02:30:20.971Z,82.48
2022-11-27T02:32:57.174Z,81.94
2022-11-27T02:35:31.612Z,82.57
2022-11-27T02:38:02.717Z,81.84
2022-11-27T02:40:40.140Z,82.39
2022-11-27T02:43:19.233Z,83.35
2022-11-27T02:45:49.461Z,82.77
2022-11-27T02:48:19.627Z,81.97
2022-11-27T02:50:48.964Z,82.48
2022-11-27T02:53:21.975Z,81.96
2022-11-27T02:55:50.520Z,82.07
2022-11-27T02:58:20.965Z,82.08
2022-11-27T03:00:49.060Z,82.29
2022-11-27T03:03:21.260Z,83.04
2022-11-27T03:05:51.378Z,81.98
2022-11-27T03:08:29.326Z,82.01
2022-11-27T03:11:08.514Z,82.13
2022-11-27T03:13:39.867Z,81.91
2022-11-27T03:16:15.952Z,82.17
2022-11-27T03:18:48.056Z,82.80
2022-11-27T03:21:40.406Z,81.88
2022-11-27T03:24:08.395Z,81.80
2022-11-27T03:26:35.591Z,81.79
2022-11-27T03:29:04.756Z,82.27
2022-11-27T03:31:32.079Z,81.91
2022-11-27T03:33:59.108Z,82.26
2022-11-27T03:36:25.762Z,81.92
2022-11-27T03:38:55.364Z,81.94
2022-11-27T03:41:30.641Z,81.48
2022-11-27T03:44:07.543Z,81.70
2022-11-27T03:47:05.591Z,81.61
2022-11-27T03:50:05.941Z,81.36
2022-11-27T03:52:56.742Z,81.43
2022-11-27T03:55:44.724Z,81.70
2022-11-27T03:58:34.158Z,81.41
2022-11-27T04:01:03.375Z,81.62
2022-11-27T04:03:30.804Z,81.90
2022-11-27T04:05:57.903Z,81.67
2022-11-27T04:08:24.917Z,81.09
2022-11-27T04:10:51.595Z,81.62
2022-11-27T04:13:18.156Z,81.68
2022-11-27T04:15:44.789Z,81.49
2022-11-27T04:18:11.538Z,81.75
2022-11-27T04:20:38.162Z,81.51
2022-11-27T04:23:04.796Z,81.41
2022-11-27T04:25:32.517Z,81.47
2022-11-27T04:27:59.380Z,81.30
2022-11-27T04:30:25.974Z,81.31
2022-11-27T04:32:52.568Z,81.11
2022-11-27T04:35:19.344Z,81.13
2022-11-27T04:37:45.907Z,80.67
2022-11-27T04:40:13.247Z,80.98
2022-11-27T04:42:40.011Z,81.25
2022-11-27T04:45:07.246Z,80.95
2022-11-27T04:47:33.854Z,80.76
2022-11-27T04:50:00.314Z,80.95
2022-11-27T04:52:27.174Z,81.16
2022-11-27T04:54:59.651Z,81.03
2022-11-27T04:57:26.798Z,81.10
2022-11-27T04:59:53.429Z,81.16
2022-11-27T05:02:20.144Z,80.79
2022-11-27T05:04:46.807Z,80.90
2022-11-27T05:07:13.498Z,80.63
2022-11-27T05:09:40.280Z,80.84
2022-11-27T05:12:06.987Z,80.67
2022-11-27T05:14:33.857Z,80.50
2022-11-27T05:17:00.721Z,80.60
2022-11-27T05:19:29.760Z,81.03
2022-11-27T05:21:56.518Z,80.67
2022-11-27T05:24:26.352Z,80.90
2022-11-27T05:26:53.081Z,80.90
2022-11-27T05:29:20.524Z,80.49
2022-11-27T05:31:47.624Z,80.93
2022-11-27T05:34:15.089Z,80.16
2022-11-27T05:36:41.956Z,80.58
2022-11-27T05:39:10.135Z,79.86
2022-11-27T05:41:39.605Z,80.82
2022-11-27T05:44:06.605Z,80.49
2022-11-27T05:46:33.571Z,80.85
2022-11-27T05:49:00.353Z,80.68
2022-11-27T05:51:27.177Z,80.68
2022-11-27T05:53:53.861Z,80.10
2022-11-27T05:56:20.517Z,80.48
2022-11-27T05:58:49.145Z,80.28
2022-11-27T06:01:17.831Z,80.88
2022-11-27T06:03:44.789Z,80.61
2022-11-27T06:06:17.206Z,80.74
2022-11-27T06:08:45.063Z,80.79
2022-11-27T06:11:16.470Z,80.82
2022-11-27T06:13:43.448Z,80.97
2022-11-27T06:16:21.588Z,81.06
2022-11-27T06:18:53.118Z,81.15
2022-11-27T06:21:20.863Z,81.32
2022-11-27T06:23:47.865Z,80.99
2022-11-27T06:26:23.725Z,80.53
2022-11-27T06:28:50.990Z,80.80
2022-11-27T06:31:21.390Z,81.30
2022-11-27T06:33:49.800Z,81.54
2022-11-27T06:36:17.419Z,81.49
2022-11-27T06:38:44.637Z,81.24
2022-11-27T06:41:15.948Z,81.01
2022-11-27T06:43:43.068Z,81.36
2022-11-27T06:46:12.761Z,81.04
2022-11-27T06:48:39.531Z,81.17
2022-11-27T06:51:07.437Z,81.32
2022-11-27T06:53:36.904Z,81.12
2022-11-27T06:56:09.179Z,81.09
2022-11-27T06:58:36.726Z,81.36
2022-11-27T07:01:06.092Z,81.37
2022-11-27T07:03:32.632Z,81.04
2022-11-27T07:06:04.344Z,81.11
2022-11-27T07:08:31.576Z,81.51
2022-11-27T07:11:08.586Z,81.56
2022-11-27T07:13:35.412Z,81.80
2022-11-27T07:16:05.501Z,81.69
2022-11-27T07:18:36.349Z,81.55
2022-11-27T07:21:03.370Z,81.27
2022-11-27T07:23:30.119Z,81.18
2022-11-27T07:25:56.748Z,81.46
2022-11-27T07:28:24.267Z,81.99
2022-11-27T07:30:58.581Z,81.89
2022-11-27T07:33:25.971Z,82.19
2022-11-27T07:36:04.638Z,81.83
2022-11-27T07:38:31.164Z,82.12
2022-11-27T07:41:07.139Z,82.10
2022-11-27T07:43:34.795Z,82.63
2022-11-27T07:46:10.871Z,83.16
2022-11-27T07:48:37.998Z,83.47
2022-11-27T07:51:09.136Z,83.50
2022-11-27T07:53:37.747Z,84.22
2022-11-27T07:56:07.657Z,84.23
2022-11-27T07:58:34.356Z,84.36
2022-11-27T08:01:01.339Z,85.78
2022-11-27T08:03:27.908Z,85.36
2022-11-27T08:05:54.445Z,84.92
2022-11-27T08:08:21.158Z,84.40
2022-11-27T08:10:47.947Z,86.55
2022-11-27T08:13:14.564Z,86.07
2022-11-27T08:15:41.075Z,86.52
2022-11-27T08:18:07.768Z,84.84
2022-11-27T08:20:34.528Z,85.63
2022-11-27T08:23:03.008Z,85.86
2022-11-27T08:25:30.046Z,84.38
2022-11-27T08:27:56.543Z,84.85
2022-11-27T08:30:26.022Z,83.73
2022-11-27T08:32:53.969Z,85.55
2022-11-27T08:35:20.948Z,85.75
2022-11-27T08:37:47.822Z,86.45
2022-11-27T08:40:14.499Z,85.95
2022-11-27T08:42:41.023Z,84.65
2022-11-27T08:45:08.279Z,85.13
2022-11-27T08:47:34.990Z,86.03
2022-11-27T08:50:01.554Z,82.25
2022-11-27T08:52:28.281Z,83.74
2022-11-27T08:54:57.707Z,85.39
2022-11-27T08:57:28.513Z,84.82
2022-11-27T09:00:07.689Z,85.12
2022-11-27T09:02:34.924Z,85.21
2022-11-27T09:05:02.823Z,84.97
2022-11-27T09:07:29.425Z,84.85
2022-11-27T09:09:55.935Z,82.55
2022-11-27T09:12:22.490Z,84.29
2022-11-27T09:14:49.236Z,85.30
2022-11-27T09:17:15.917Z,85.25
2022-11-27T09:19:42.432Z,85.04
2022-11-27T09:22:25.095Z,85.58
2022-11-27T09:24:51.828Z,85.61
2022-11-27T09:27:18.365Z,84.09
2022-11-27T09:29:44.986Z,81.98
2022-11-27T09:32:11.517Z,84.74
2022-11-27T09:34:38.100Z,82.91
2022-11-27T09:37:05.228Z,84.38
2022-11-27T09:39:33.972Z,83.33
2022-11-27T09:42:03.970Z,83.67
2022-11-27T09:44:47.016Z,83.53
2022-11-27T09:47:41.652Z,84.16
2022-11-27T09:50:22.528Z,84.92
2022-11-27T09:53:03.991Z,83.79
2022-11-27T09:55:44.745Z,84.55
2022-11-27T09:58:40.346Z,84.64
2022-11-27T10:01:13.266Z,81.84
2022-11-27T10:03:44.431Z,84.39
2022-11-27T10:06:24.229Z,84.27
2022-11-27T10:08:57.515Z,85.00
2022-11-27T10:12:05.326Z,82.08
2022-11-27T10:14:54.808Z,83.98
2022-11-27T10:17:32.613Z,83.23
2022-11-27T10:20:13.186Z,84.19
2022-11-27T10:22:46.139Z,80.76
2022-11-27T10:25:29.544Z,84.20
2022-11-27T10:28:23.626Z,81.00
2022-11-27T10:30:55.092Z,82.85
2022-11-27T10:33:28.154Z,83.72
2022-11-27T10:35:55.175Z,84.21
2022-11-27T10:38:26.757Z,83.86
2022-11-27T10:41:03.950Z,80.27
2022-11-27T10:43:30.717Z,83.79
2022-11-27T10:46:02.670Z,82.53
2022-11-27T10:48:29.837Z,83.95
2022-11-27T10:50:56.977Z,81.73
2022-11-27T10:53:28.074Z,83.29
2022-11-27T10:55:57.653Z,81.54
2022-11-27T10:58:49.635Z,80.57
2022-11-27T11:01:19.522Z,83.87
2022-11-27T11:03:46.687Z,82.65
2022-11-27T11:06:22.425Z,82.56
2022-11-27T11:09:06.150Z,82.92
2022-11-27T11:11:33.050Z,81.06
2022-11-27T11:13:59.885Z,82.86
2022-11-27T11:16:35.394Z,81.72
2022-11-27T11:19:03.044Z,79.95
2022-11-27T11:21:38.186Z,80.61
2022-11-27T11:24:14.564Z,82.41
2022-11-27T11:26:46.742Z,80.93
2022-11-27T11:29:34.361Z,81.53
2022-11-27T11:32:10.437Z,81.80
2022-11-27T11:34:46.042Z,81.14
2022-11-27T11:37:26.387Z,80.13
2022-11-27T11:39:57.527Z,81.54
2022-11-27T11:42:30.066Z,79.32
2022-11-27T11:45:19.291Z,81.52
2022-11-27T11:47:47.978Z,81.43
2022-11-27T11:50:26.154Z,81.11
2022-11-27T11:53:22.849Z,81.15
2022-11-27T11:56:07.834Z,81.00
2022-11-27T11:58:46.167Z,80.29
2022-11-27T12:01:31.327Z,80.00
2022-11-27T12:04:25.136Z,78.36
2022-11-27T12:07:08.235Z,80.13
2022-11-27T12:09:39.677Z,80.03
2022-11-27T12:12:08.932Z,78.51
2022-11-27T12:14:41.350Z,80.76
2022-11-27T12:17:23.366Z,78.65
2022-11-27T12:19:59.819Z,78.33
2022-11-27T12:22:41.725Z,78.15
2022-11-27T12:25:28.622Z,77.97
2022-11-27T12:28:13.206Z,77.01
2022-11-27T12:31:04.237Z,79.12
2022-11-27T12:33:42.987Z,77.16
2022-11-27T12:36:28.081Z,79.22
2022-11-27T12:39:10.798Z,79.95
2022-11-27T12:41:47.485Z,79.12
2022-11-27T12:44:28.184Z,75.95
2022-11-27T12:47:08.760Z,77.69
2022-11-27T12:49:45.772Z,76.83
2022-11-27T12:52:23.652Z,78.27
2022-11-27T12:54:50.277Z,77.60
2022-11-27T12:57:22.203Z,77.85
2022-11-27T12:59:56.963Z,78.88
2022-11-27T13:02:41.291Z,76.76
2022-11-27T13:05:15.123Z,77.71
2022-11-27T13:07:49.444Z,78.52
2022-11-27T13:10:27.214Z,76.90
2022-11-27T13:13:09.673Z,77.75
2022-11-27T13:15:47.893Z,77.74
2022-11-27T13:18:21.187Z,77.12
2022-11-27T13:20:52.756Z,77.36
2022-11-27T13:23:20.561Z,78.32
2022-11-27T13:25:53.611Z,77.69
2022-11-27T13:28:32.035Z,78.34
2022-11-27T13:31:01.543Z,76.07
2022-11-27T13:33:37.311Z,77.24
2022-11-27T13:36:08.073Z,78.18
2022-11-27T13:38:38.296Z,78.36
2022-11-27T13:41:06.383Z,76.06
2022-11-27T13:43:43.560Z,76.54
2022-11-27T13:46:25.825Z,77.11
2022-11-27T13:49:03.140Z,76.14
2022-11-27T13:51:36.106Z,77.29
2022-11-27T13:54:10.764Z,77.41
2022-11-27T13:56:39.274Z,78.36
2022-11-27T13:59:17.828Z,76.83
2022-11-27T14:01:59.889Z,77.72
2022-11-27T14:04:28.621Z,77.70
2022-11-27T14:07:03.564Z,78.25
2022-11-27T14:09:38.724Z,77.41
2022-11-27T14:12:24.516Z,76.37
2022-11-27T14:15:01.153Z,77.11
2022-11-27T14:17:37.783Z,77.63
2022-11-27T14:20:11.406Z,77.38
2022-11-27T14:23:10.638Z,77.01
2022-11-27T14:25:37.759Z,78.13
2022-11-27T14:28:12.829Z,77.09
2022-11-27T14:30:59.236Z,77.82
2022-11-27T14:33:28.393Z,78.24
2022-11-27T14:36:00.395Z,77.24
2022-11-27T14:38:28.910Z,78.12
2022-11-27T14:41:08.716Z,77.48
2022-11-27T14:43:35.638Z,78.18
2022-11-27T14:46:04.509Z,76.64
2022-11-27T14:48:45.190Z,77.80
2022-11-27T14:51:17.278Z,77.11
2022-11-27T14:53:46.760Z,77.48
2022-11-27T14:56:15.280Z,77.80
2022-11-27T14:58:49.240Z,78.02
2022-11-27T15:01:23.684Z,77.43
2022-11-27T15:03:58.490Z,77.59
2022-11-27T15:06:28.446Z,77.64
2022-11-27T15:09:23.512Z,77.97
2022-11-27T15:11:57.069Z,78.05
2022-11-27T15:14:27.454Z,77.94
2022-11-27T15:16:55.370Z,76.19
2022-11-27T15:19:28.722Z,77.08
2022-11-27T15:21:55.869Z,77.40
2022-11-27T15:24:37.347Z,77.79
2022-11-27T15:27:19.897Z,76.80
2022-11-27T15:30:11.494Z,76.58
2022-11-27T15:32:52.027Z,77.10
2022-11-27T15:35:26.683Z,77.51
2022-11-27T15:37:55.998Z,77.13
2022-11-27T15:40:33.553Z,77.83
2022-11-27T15:43:10.918Z,77.48
2022-11-27T15:45:40.347Z,77.42
2022-11-27T15:48:15.487Z,76.67
2022-11-27T15:50:45.548Z,77.64
2022-11-27T15:53:16.685Z,76.18
2022-11-27T15:55:43.428Z,77.33
2022-11-27T15:58:09.968Z,77.64
2022-11-27T16:00:36.646Z,77.13
2022-11-27T16:03:03.210Z,76.68
2022-11-27T16:05:30.389Z,77.23
2022-11-27T16:07:57.623Z,77.03
2022-11-27T16:10:24.458Z,77.18
2022-11-27T16:12:54.921Z,77.40
2022-11-27T16:15:23.343Z,77.13
2022-11-27T16:17:50.684Z,76.80
2022-11-27T16:20:17.373Z,76.92
2022-11-27T16:22:43.984Z,76.34
2022-11-27T16:25:10.569Z,75.82
2022-11-27T16:27:37.283Z,77.60
2022-11-27T16:30:04.314Z,76.51
2022-11-27T16:32:31.138Z,77.17
2022-11-27T16:34:57.896Z,76.10
2022-11-27T16:37:24.561Z,75.98
2022-11-27T16:39:51.081Z,76.39
2022-11-27T16:42:17.642Z,76.97
2022-11-27T16:44:44.695Z,76.64
2022-11-27T16:47:12.103Z,77.11
2022-11-27T16:49:38.608Z,76.94
2022-11-27T16:52:05.159Z,74.55
2022-11-27T16:54:31.824Z,77.30
2022-11-27T16:56:58.601Z,76.40
2022-11-27T16:59:25.307Z,76.84
2022-11-27T17:01:55.256Z,75.23
2022-11-27T17:04:21.904Z,76.78
2022-11-27T17:06:49.760Z,76.92
2022-11-27T17:09:17.019Z,76.69
2022-11-27T17:11:48.367Z,76.52
2022-11-27T17:14:16.166Z,76.24
2022-11-27T17:16:43.435Z,76.31
2022-11-27T17:19:13.148Z,76.30
2022-11-27T17:21:40.602Z,77.09
2022-11-27T17:24:15.055Z,77.23
2022-11-27T17:26:43.111Z,77.24
2022-11-27T17:29:11.182Z,76.83
2022-11-27T17:31:37.896Z,77.01
2022-11-27T17:34:05.845Z,76.10
2022-11-27T17:36:59.451Z,76.43
2022-11-27T17:39:26.027Z,77.46
2022-11-27T17:41:52.519Z,77.34
2022-11-27T17:44:19.307Z,77.45
2022-11-27T17:46:49.900Z,76.79
2022-11-27T17:49:17.251Z,77.27
2022-11-27T17:51:43.953Z,77.37
2022-11-27T17:54:11.384Z,77.04
2022-11-27T17:56:38.127Z,76.90
2022-11-27T17:59:04.843Z,76.75
2022-11-27T18:01:33.629Z,77.64
2022-11-27T18:04:02.308Z,77.11
2022-11-27T18:06:29.419Z,76.98
2022-11-27T18:08:57.619Z,77.67
2022-11-27T18:11:27.928Z,77.72
2022-11-27T18:13:54.777Z,77.09
2022-11-27T18:16:24.400Z,77.99
2022-11-27T18:18:51.627Z,77.52
2022-11-27T18:21:20.427Z,78.01
2022-11-27T18:29:22.657Z,77.83
2022-11-27T18:31:50.941Z,77.84
2022-11-27T18:34:18.022Z,78.43
2022-11-27T18:36:45.877Z,78.75
2022-11-27T18:39:12.919Z,78.66
2022-11-27T18:41:39.525Z,79.32
2022-11-27T18:44:06.354Z,79.30
2022-11-27T18:46:33.296Z,78.62
2022-11-27T18:49:00.352Z,80.03
2022-11-27T18:51:27.047Z,79.68
2022-11-27T18:53:54.632Z,79.62
2022-11-27T18:56:24.762Z,78.71
2022-11-27T18:58:51.795Z,79.90
2022-11-27T19:01:21.958Z,79.64
2022-11-27T19:03:49.031Z,79.37
2022-11-27T19:06:18.148Z,79.25
2022-11-27T19:08:45.407Z,80.00
2022-11-27T19:11:14.525Z,80.42
2022-11-27T19:13:41.494Z,80.61
2022-11-27T19:16:13.516Z,80.63
2022-11-27T19:18:40.491Z,79.91
2022-11-27T19:21:12.621Z,79.89
2022-11-27T19:23:39.932Z,79.48
2022-11-27T19:26:11.570Z,80.58
2022-11-27T19:28:39.179Z,79.89
2022-11-27T19:31:08.121Z,80.51
2022-11-27T19:33:36.223Z,80.51
2022-11-27T19:36:06.918Z,80.08
2022-11-27T19:38:33.500Z,80.25
2022-11-27T19:41:00.506Z,80.79
2022-11-27T19:43:27.638Z,80.88
2022-11-27T19:45:54.395Z,80.67
2022-11-27T19:48:23.425Z,80.46
2022-11-27T19:50:51.697Z,80.79
2022-11-27T19:53:18.779Z,81.13
2022-11-27T19:55:52.878Z,81.10
2022-11-27T19:58:19.377Z,80.39
2022-11-27T20:00:46.076Z,80.38
2022-11-27T20:03:12.655Z,81.06
2022-11-27T20:05:39.223Z,80.96
2022-11-27T20:08:05.908Z,81.02
2022-11-27T20:10:32.562Z,81.15
2022-11-27T20:13:02.544Z,80.79
2022-11-27T20:15:29.827Z,80.93
2022-11-27T20:17:56.495Z,80.87
2022-11-27T20:20:23.118Z,80.91
2022-11-27T20:22:50.482Z,80.94
2022-11-27T20:25:19.911Z,81.21
2022-11-27T20:27:47.019Z,81.21
2022-11-27T20:30:13.750Z,81.48
2022-11-27T20:32:40.495Z,80.99
2022-11-27T20:35:07.357Z,81.65
2022-11-27T20:37:34.121Z,81.38
2022-11-27T20:40:00.633Z,81.38
2022-11-27T20:42:27.236Z,81.49
2022-11-27T20:44:53.761Z,81.59
2022-11-27T20:47:20.287Z,81.64
2022-11-27T20:49:47.107Z,81.60
2022-11-27T20:52:14.656Z,81.58
2022-11-27T20:54:41.468Z,81.63
2022-11-27T20:57:14.058Z,81.31
2022-11-27T20:59:41.903Z,81.43
2022-11-27T21:02:12.482Z,81.64
2022-11-27T21:04:39.140Z,80.95
2022-11-27T21:07:05.899Z,80.87
2022-11-27T21:09:32.772Z,80.36
2022-11-27T21:11:59.742Z,80.80
2022-11-27T21:14:26.623Z,80.56
2022-11-27T21:16:54.514Z,81.13
2022-11-27T21:19:26.170Z,80.66
2022-11-27T21:21:54.143Z,80.32
2022-11-27T21:24:21.877Z,80.42
2022-11-27T21:26:49.082Z,80.50
2022-11-27T21:29:16.176Z,80.15
2022-11-27T21:31:46.859Z,79.57
2022-11-27T21:34:14.382Z,79.99
2022-11-27T21:36:41.086Z,81.33
2022-11-27T21:39:11.507Z,79.97
2022-11-27T21:41:38.302Z,80.67
2022-11-27T21:44:05.353Z,79.86
2022-11-27T21:46:32.040Z,81.10
2022-11-27T21:49:00.802Z,80.73
2022-11-27T21:51:29.019Z,80.10
2022-11-27T21:53:57.711Z,82.07
2022-11-27T21:56:26.174Z,80.96
2022-11-27T21:58:52.978Z,81.54
2022-11-27T22:01:22.631Z,80.03
2022-11-27T22:03:51.435Z,80.88
2022-11-27T22:06:19.391Z,79.29
2022-11-27T22:08:48.022Z,80.80
2022-11-27T22:11:17.997Z,79.03
2022-11-27T22:13:44.888Z,80.13
2022-11-27T22:16:22.742Z,82.65
2022-11-27T22:18:50.099Z,78.65
2022-11-27T22:21:17.535Z,79.79
2022-11-27T22:23:44.759Z,80.10
2022-11-27T22:26:16.664Z,82.15
2022-11-27T22:28:43.564Z,81.35
2022-11-27T22:31:24.887Z,80.39
2022-11-27T22:33:51.975Z,79.32
2022-11-27T22:36:21.629Z,80.29
2022-11-27T22:38:50.683Z,80.49
2022-11-27T22:41:18.852Z,78.85
2022-11-27T22:43:45.737Z,80.05
2022-11-27T22:46:15.772Z,79.92
2022-11-27T22:48:42.792Z,80.85
2022-11-27T22:51:10.152Z,79.87
2022-11-27T22:53:37.685Z,82.24
2022-11-27T22:56:06.026Z,80.34
2022-11-27T22:58:35.219Z,79.84
2022-11-27T23:01:05.413Z,80.37
2022-11-27T23:03:33.323Z,80.81
2022-11-27T23:06:00.706Z,80.02
2022-11-27T23:08:27.333Z,79.93
2022-11-27T23:10:54.066Z,81.15
2022-11-27T23:13:20.703Z,81.02
2022-11-27T23:15:47.356Z,80.27
2022-11-27T23:18:13.899Z,79.70
2022-11-27T23:20:41.844Z,81.60
2022-11-27T23:23:08.869Z,80.83
2022-11-27T23:25:35.457Z,81.06
2022-11-27T23:28:02.157Z,80.03
2022-11-27T23:30:28.719Z,81.31
2022-11-27T23:32:55.303Z,80.59
2022-11-27T23:35:22.013Z,81.12
2022-11-27T23:37:48.547Z,82.20
2022-11-27T23:40:15.446Z,81.59
2022-11-27T23:42:42.882Z,83.79
2022-11-27T23:45:10.220Z,82.08
2022-11-27T23:47:36.932Z,81.81
2022-11-27T23:50:04.615Z,81.11
2022-11-27T23:52:31.225Z,81.14
2022-11-27T23:54:57.815Z,80.53
2022-11-27T23:57:24.453Z,81.60
2022-11-27T23:59:51.145Z,81.31
